sensor_id;sensor_type;location;lat;lon;timestamp;pressure;altitude;pressure_sealevel;temperature;humidity
15634;BME280;14654;48.898;8.308;2023-05-19T00:00:43;100816.22;;;10.08;92.11
15634;BME280;14654;48.898;8.308;2023-05-19T00:03:09;100817.94;;;10.14;91.84
15634;BME280;14654;48.898;8.308;2023-05-19T00:05:38;100806.72;;;10.12;91.66
15634;BME280;14654;48.898;8.308;2023-05-19T00:08:09;100818.81;;;10.08;91.52
15634;BME280;14654;48.898;8.308;2023-05-19T00:10:36;100810.19;;;10.04;91.51
15634;BME280;14654;48.898;8.308;2023-05-19T00:13:02;100806.72;;;10.04;91.48
15634;BME280;14654;48.898;8.308;2023-05-19T00:15:27;100810.16;;;10.03;91.71
15634;BME280;14654;48.898;8.308;2023-05-19T00:17:54;100801.56;;;9.98;92.09
15634;BME280;14654;48.898;8.308;2023-05-19T00:20:20;100811.03;;;9.96;92.31
15634;BME280;14654;48.898;8.308;2023-05-19T00:22:46;100812.72;;;9.92;92.11
15634;BME280;14654;48.898;8.308;2023-05-19T00:25:11;100809.28;;;9.88;92.14
15634;BME280;14654;48.898;8.308;2023-05-19T00:27:37;100808.41;;;9.85;92.45
15634;BME280;14654;48.898;8.308;2023-05-19T00:30:02;100810.13;;;9.84;92.71
15634;BME280;14654;48.898;8.308;2023-05-19T00:32:28;100811.81;;;9.77;93.17
15634;BME280;14654;48.898;8.308;2023-05-19T00:34:53;100810.13;;;9.78;93.41
15634;BME280;14654;48.898;8.308;2023-05-19T00:37:18;100810.13;;;9.78;93.61
15634;BME280;14654;48.898;8.308;2023-05-19T00:39:44;100802.38;;;9.78;93.63
15634;BME280;14654;48.898;8.308;2023-05-19T00:42:09;100800.66;;;9.75;93.65
15634;BME280;14654;48.898;8.308;2023-05-19T00:44:39;100801.50;;;9.74;93.55
15634;BME280;14654;48.898;8.308;2023-05-19T00:47:05;100804.94;;;9.75;93.87
15634;BME280;14654;48.898;8.308;2023-05-19T00:49:30;100801.50;;;9.71;94.00
15634;BME280;14654;48.898;8.308;2023-05-19T00:51:56;100797.19;;;9.70;94.48
15634;BME280;14654;48.898;8.308;2023-05-19T00:54:22;100799.75;;;9.67;94.38
15634;BME280;14654;48.898;8.308;2023-05-19T00:56:47;100809.22;;;9.64;94.22
15634;BME280;14654;48.898;8.308;2023-05-19T00:59:14;100808.34;;;9.58;94.50
15634;BME280;14654;48.898;8.308;2023-05-19T01:01:39;100800.56;;;9.52;95.01
15634;BME280;14654;48.898;8.308;2023-05-19T01:04:05;100806.56;;;9.50;95.35
15634;BME280;14654;48.898;8.308;2023-05-19T01:06:34;100807.44;;;9.49;94.93
15634;BME280;14654;48.898;8.308;2023-05-19T01:09:01;100806.53;;;9.42;95.48
15634;BME280;14654;48.898;8.308;2023-05-19T01:11:27;100803.94;;;9.39;95.72
15634;BME280;14654;48.898;8.308;2023-05-19T01:13:52;100800.50;;;9.34;95.94
15634;BME280;14654;48.898;8.308;2023-05-19T01:16:33;100797.03;;;9.30;95.95
15634;BME280;14654;48.898;8.308;2023-05-19T01:24:29;100789.25;;;9.22;97.09
15634;BME280;14654;48.898;8.308;2023-05-19T01:27:13;100789.25;;;9.22;97.39
15634;BME280;14654;48.898;8.308;2023-05-19T01:32:33;100796.13;;;9.17;97.55
15634;BME280;14654;48.898;8.308;2023-05-19T01:35:00;100790.91;;;9.14;97.78
15634;BME280;14654;48.898;8.308;2023-05-19T01:37:27;100793.50;;;9.14;97.88
15634;BME280;14654;48.898;8.308;2023-05-19T01:39:53;100792.63;;;9.12;98.05
15634;BME280;14654;48.898;8.308;2023-05-19T01:42:20;100787.47;;;9.10;98.14
15634;BME280;14654;48.898;8.308;2023-05-19T01:44:46;100782.31;;;9.12;98.19
15634;BME280;14654;48.898;8.308;2023-05-19T01:47:13;100790.06;;;9.17;98.26
15634;BME280;14654;48.898;8.308;2023-05-19T01:49:38;100790.09;;;9.18;98.27
15634;BME280;14654;48.898;8.308;2023-05-19T01:52:04;100786.66;;;9.19;98.30
15634;BME280;14654;48.898;8.308;2023-05-19T01:54:29;100787.50;;;9.20;98.33
15634;BME280;14654;48.898;8.308;2023-05-19T01:57:06;100790.09;;;9.23;97.66
15634;BME280;14654;48.898;8.308;2023-05-19T01:59:57;100787.53;;;9.27;97.15
15634;BME280;14654;48.898;8.308;2023-05-19T02:02:39;100786.72;;;9.30;96.59
15634;BME280;14654;48.898;8.308;2023-05-19T02:08:42;100796.19;;;9.33;95.90
15634;BME280;14654;48.898;8.308;2023-05-19T02:11:17;100801.34;;;9.33;96.03
15634;BME280;14654;48.898;8.308;2023-05-19T02:13:46;100801.34;;;9.33;95.84
15634;BME280;14654;48.898;8.308;2023-05-19T02:16:13;100805.63;;;9.32;95.94
15634;BME280;14654;48.898;8.308;2023-05-19T02:18:40;100804.78;;;9.30;96.02
15634;BME280;14654;48.898;8.308;2023-05-19T02:21:09;100813.38;;;9.30;96.18
15634;BME280;14654;48.898;8.308;2023-05-19T02:23:38;100803.06;;;9.32;95.94
15634;BME280;14654;48.898;8.308;2023-05-19T02:26:03;100806.50;;;9.29;95.99
15634;BME280;14654;48.898;8.308;2023-05-19T02:28:29;100810.81;;;9.29;96.11
15634;BME280;14654;48.898;8.308;2023-05-19T02:30:54;100805.66;;;9.29;95.92
15634;BME280;14654;48.898;8.308;2023-05-19T02:33:20;100807.38;;;9.30;96.11
15634;BME280;14654;48.898;8.308;2023-05-19T02:35:48;100803.06;;;9.29;96.01
15634;BME280;14654;48.898;8.308;2023-05-19T02:38:13;100798.75;;;9.31;95.85
15634;BME280;14654;48.898;8.308;2023-05-19T02:40:39;100795.31;;;9.30;95.82
15634;BME280;14654;48.898;8.308;2023-05-19T02:43:04;100799.63;;;9.32;95.60
15634;BME280;14654;48.898;8.308;2023-05-19T02:45:30;100792.72;;;9.30;95.80
15634;BME280;14654;48.898;8.308;2023-05-19T02:47:55;100794.47;;;9.30;95.83
15634;BME280;14654;48.898;8.308;2023-05-19T02:50:21;100801.31;;;9.29;95.86
15634;BME280;14654;48.898;8.308;2023-05-19T02:52:46;100799.59;;;9.28;95.77
15634;BME280;14654;48.898;8.308;2023-05-19T02:55:12;100794.41;;;9.25;96.00
15634;BME280;14654;48.898;8.308;2023-05-19T02:57:41;100786.66;;;9.21;96.36
15634;BME280;14654;48.898;8.308;2023-05-19T03:00:07;100798.72;;;9.20;96.70
15634;BME280;14654;48.898;8.308;2023-05-19T03:02:32;100784.06;;;9.19;96.06
15634;BME280;14654;48.898;8.308;2023-05-19T03:04:58;100784.94;;;9.18;96.07
15634;BME280;14654;48.898;8.308;2023-05-19T03:07:25;100786.63;;;9.16;96.22
15634;BME280;14654;48.898;8.308;2023-05-19T03:09:51;100795.22;;;9.12;96.65
15634;BME280;14654;48.898;8.308;2023-05-19T03:12:17;100786.59;;;9.10;96.96
15634;BME280;14654;48.898;8.308;2023-05-19T03:14:42;100789.19;;;9.08;97.09
15634;BME280;14654;48.898;8.308;2023-05-19T03:17:07;100782.25;;;9.03;97.20
15634;BME280;14654;48.898;8.308;2023-05-19T03:19:34;100778.84;;;9.04;97.45
15634;BME280;14654;48.898;8.308;2023-05-19T03:21:59;100787.41;;;9.01;97.71
15634;BME280;14654;48.898;8.308;2023-05-19T03:24:25;100789.13;;;9.00;98.02
15634;BME280;14654;48.898;8.308;2023-05-19T03:26:50;100790.84;;;8.97;98.00
15634;BME280;14654;48.898;8.308;2023-05-19T03:29:15;100791.69;;;8.96;98.22
15634;BME280;14654;48.898;8.308;2023-05-19T03:31:41;100792.56;;;8.95;97.98
15634;BME280;14654;48.898;8.308;2023-05-19T03:34:06;100794.25;;;8.93;98.00
15634;BME280;14654;48.898;8.308;2023-05-19T03:36:31;100796.81;;;8.90;98.53
15634;BME280;14654;48.898;8.308;2023-05-19T03:39:04;100794.25;;;8.93;98.14
15634;BME280;14654;48.898;8.308;2023-05-19T03:41:30;100793.38;;;8.91;98.76
15634;BME280;14654;48.898;8.308;2023-05-19T03:43:55;100795.09;;;8.87;98.94
15634;BME280;14654;48.898;8.308;2023-05-19T03:46:20;100798.50;;;8.88;98.90
15634;BME280;14654;48.898;8.308;2023-05-19T03:48:46;100803.69;;;8.88;99.15
15634;BME280;14654;48.898;8.308;2023-05-19T03:51:11;100808.84;;;8.84;99.42
15634;BME280;14654;48.898;8.308;2023-05-19T03:53:37;100807.97;;;8.84;99.40
15634;BME280;14654;48.898;8.308;2023-05-19T03:56:02;100804.50;;;8.80;99.64
15634;BME280;14654;48.898;8.308;2023-05-19T03:58:28;100807.06;;;8.79;99.80
15634;BME280;14654;48.898;8.308;2023-05-19T04:00:54;100807.94;;;8.79;99.70
15634;BME280;14654;48.898;8.308;2023-05-19T04:03:19;100806.22;;;8.77;99.89
15634;BME280;14654;48.898;8.308;2023-05-19T04:05:45;100812.22;;;8.79;100.00
15634;BME280;14654;48.898;8.308;2023-05-19T04:08:10;100813.97;;;8.81;99.85
15634;BME280;14654;48.898;8.308;2023-05-19T04:10:35;100812.28;;;8.83;100.00
15634;BME280;14654;48.898;8.308;2023-05-19T04:13:01;100814.84;;;8.87;99.87
15634;BME280;14654;48.898;8.308;2023-05-19T04:15:26;100810.56;;;8.89;99.87
15634;BME280;14654;48.898;8.308;2023-05-19T04:17:52;100808.00;;;8.90;99.85
15634;BME280;14654;48.898;8.308;2023-05-19T04:20:17;100810.63;;;8.95;99.86
15634;BME280;14654;48.898;8.308;2023-05-19T04:22:42;100808.03;;;8.95;99.60
15634;BME280;14654;48.898;8.308;2023-05-19T04:25:08;100810.66;;;8.98;99.37
15634;BME280;14654;48.898;8.308;2023-05-19T04:27:33;100810.63;;;9.01;99.60
15634;BME280;14654;48.898;8.308;2023-05-19T04:30:06;100812.38;;;9.05;99.15
15634;BME280;14654;48.898;8.308;2023-05-19T04:32:32;100815.88;;;9.10;98.92
15634;BME280;14654;48.898;8.308;2023-05-19T04:34:58;100816.75;;;9.14;99.03
15634;BME280;14654;48.898;8.308;2023-05-19T04:37:24;100817.66;;;9.19;98.78
15634;BME280;14654;48.898;8.308;2023-05-19T04:39:50;100821.13;;;9.26;98.12
15634;BME280;14654;48.898;8.308;2023-05-19T04:42:16;100825.44;;;9.32;98.20
15634;BME280;14654;48.898;8.308;2023-05-19T04:44:45;100815.97;;;9.32;97.55
15634;BME280;14654;48.898;8.308;2023-05-19T04:47:11;100811.69;;;9.34;97.61
15634;BME280;14654;48.898;8.308;2023-05-19T04:49:37;100819.47;;;9.40;97.13
15634;BME280;14654;48.898;8.308;2023-05-19T04:52:07;100826.38;;;9.44;97.08
15634;BME280;14654;48.898;8.308;2023-05-19T04:54:37;100822.94;;;9.47;97.32
15634;BME280;14654;48.898;8.308;2023-05-19T04:57:03;100827.25;;;9.54;97.19
15634;BME280;14654;48.898;8.308;2023-05-19T04:59:28;100829.84;;;9.57;96.72
15634;BME280;14654;48.898;8.308;2023-05-19T05:01:54;100829.03;;;9.61;96.12
15634;BME280;14654;48.898;8.308;2023-05-19T05:04:20;100830.75;;;9.66;95.95
15634;BME280;14654;48.898;8.308;2023-05-19T05:06:45;100829.06;;;9.79;95.71
15634;BME280;14654;48.898;8.308;2023-05-19T05:09:13;100830.84;;;9.97;95.02
15634;BME280;14654;48.898;8.308;2023-05-19T05:11:39;100831.75;;;10.30;93.67
15634;BME280;14654;48.898;8.308;2023-05-19T05:14:05;100829.22;;;10.75;92.06
15634;BME280;14654;48.898;8.308;2023-05-19T05:16:31;100825.72;;;10.97;90.77
15634;BME280;14654;48.898;8.308;2023-05-19T05:18:57;100826.53;;;11.12;89.95
15634;BME280;14654;48.898;8.308;2023-05-19T05:21:23;100825.63;;;11.38;89.50
15634;BME280;14654;48.898;8.308;2023-05-19T05:23:49;100825.41;;;11.81;87.34
15634;BME280;14654;48.898;8.308;2023-05-19T05:26:18;100827.91;;;11.97;85.95
15634;BME280;14654;48.898;8.308;2023-05-19T05:28:45;100838.31;;;11.92;85.62
15634;BME280;14654;48.898;8.308;2023-05-19T05:31:10;100827.09;;;11.93;85.37
15634;BME280;14654;48.898;8.308;2023-05-19T05:33:37;100838.28;;;11.95;85.15
15634;BME280;14654;48.898;8.308;2023-05-19T05:36:03;100840.09;;;11.82;85.53
15634;BME280;14654;48.898;8.308;2023-05-19T05:38:29;100828.84;;;11.88;85.36
15634;BME280;14654;48.898;8.308;2023-05-19T05:40:54;100822.69;;;12.09;85.15
15634;BME280;14654;48.898;8.308;2023-05-19T05:43:19;100827.06;;;11.99;84.20
15634;BME280;14654;48.898;8.308;2023-05-19T05:45:44;100819.31;;;11.93;84.91
15634;BME280;14654;48.898;8.308;2023-05-19T05:48:10;100818.28;;;12.19;84.58
15634;BME280;14654;48.898;8.308;2023-05-19T05:50:36;100823.81;;;12.83;82.88
15634;BME280;14654;48.898;8.308;2023-05-19T05:53:02;100826.09;;;13.13;80.37
15634;BME280;14654;48.898;8.308;2023-05-19T05:55:28;100819.81;;;13.34;78.84
15634;BME280;14654;48.898;8.308;2023-05-19T05:57:54;100818.28;;;13.86;77.88
15634;BME280;14654;48.898;8.308;2023-05-19T06:00:21;100811.38;;;14.43;75.91
15634;BME280;14654;48.898;8.308;2023-05-19T06:02:48;100817.44;;;14.95;74.46
15634;BME280;14654;48.898;8.308;2023-05-19T06:05:14;100807.38;;;15.22;73.91
15634;BME280;14654;48.898;8.308;2023-05-19T06:07:40;100814.59;;;15.07;73.41
15634;BME280;14654;48.898;8.308;2023-05-19T06:10:06;100824.16;;;14.57;74.01
15634;BME280;14654;48.898;8.308;2023-05-19T06:12:32;100809.72;;;14.37;75.55
15634;BME280;14654;48.898;8.308;2023-05-19T06:14:58;100808.34;;;14.69;74.18
15634;BME280;14654;48.898;8.308;2023-05-19T06:17:23;100805.47;;;14.85;73.44
15634;BME280;14654;48.898;8.308;2023-05-19T06:19:49;100808.78;;;15.37;72.61
15634;BME280;14654;48.898;8.308;2023-05-19T06:22:14;100809.94;;;15.66;72.05
15634;BME280;14654;48.898;8.308;2023-05-19T06:24:39;100807.22;;;16.48;70.52
15634;BME280;14654;48.898;8.308;2023-05-19T06:27:05;100807.97;;;16.17;70.26
15634;BME280;14654;48.898;8.308;2023-05-19T06:29:30;100812.38;;;16.49;69.40
15634;BME280;14654;48.898;8.308;2023-05-19T06:31:55;100805.56;;;17.41;68.04
15634;BME280;14654;48.898;8.308;2023-05-19T06:34:21;100816.56;;;17.54;67.02
15634;BME280;14654;48.898;8.308;2023-05-19T06:36:46;100811.59;;;18.03;66.17
15634;BME280;14654;48.898;8.308;2023-05-19T06:39:11;100816.31;;;18.47;65.18
15634;BME280;14654;48.898;8.308;2023-05-19T06:41:37;100806.53;;;18.78;64.13
15634;BME280;14654;48.898;8.308;2023-05-19T06:44:03;100814.38;;;18.78;63.68
15634;BME280;14654;48.898;8.308;2023-05-19T06:46:28;100813.88;;;18.68;63.90
15634;BME280;14654;48.898;8.308;2023-05-19T06:48:53;100810.03;;;18.77;63.75
15634;BME280;14654;48.898;8.308;2023-05-19T06:51:19;100809.19;;;19.50;62.92
15634;BME280;14654;48.898;8.308;2023-05-19T06:53:47;100807.25;;;19.56;61.88
15634;BME280;14654;48.898;8.308;2023-05-19T06:56:12;100799.47;;;19.05;62.90
15634;BME280;14654;48.898;8.308;2023-05-19T06:58:39;100801.78;;;18.89;63.00
15634;BME280;14654;48.898;8.308;2023-05-19T07:01:04;100800.56;;;19.23;61.89
15634;BME280;14654;48.898;8.308;2023-05-19T07:03:29;100803.31;;;19.44;61.98
15634;BME280;14654;48.898;8.308;2023-05-19T07:05:55;100803.78;;;19.31;61.76
15634;BME280;14654;48.898;8.308;2023-05-19T07:08:20;100797.38;;;19.39;61.92
15634;BME280;14654;48.898;8.308;2023-05-19T07:10:45;100794.66;;;19.88;61.42
15634;BME280;14654;48.898;8.308;2023-05-19T07:13:11;100791.44;;;20.24;61.27
15634;BME280;14654;48.898;8.308;2023-05-19T07:15:36;100804.63;;;19.56;61.76
15634;BME280;14654;48.898;8.308;2023-05-19T07:18:02;100789.28;;;19.67;61.66
15634;BME280;14654;48.898;8.308;2023-05-19T07:20:27;100790.53;;;19.34;61.93
15634;BME280;14654;48.898;8.308;2023-05-19T07:22:52;100791.59;;;19.53;61.99
15634;BME280;14654;48.898;8.308;2023-05-19T07:25:18;100776.94;;;19.23;63.06
15634;BME280;14654;48.898;8.308;2023-05-19T07:27:43;100776.94;;;19.23;62.35
15634;BME280;14654;48.898;8.308;2023-05-19T07:30:10;100781.09;;;18.80;63.24
15634;BME280;14654;48.898;8.308;2023-05-19T07:32:35;100779.78;;;18.68;64.14
15634;BME280;14654;48.898;8.308;2023-05-19T07:35:01;100782.72;;;18.58;64.47
15634;BME280;14654;48.898;8.308;2023-05-19T07:37:26;100781.84;;;18.33;64.24
15634;BME280;14654;48.898;8.308;2023-05-19T07:39:51;100778.72;;;18.48;64.62
15634;BME280;14654;48.898;8.308;2023-05-19T07:42:17;100771.69;;;18.74;64.33
15634;BME280;14654;48.898;8.308;2023-05-19T07:44:42;100766.47;;;18.99;63.73
15634;BME280;14654;48.898;8.308;2023-05-19T07:47:08;100773.78;;;18.89;63.92
15634;BME280;14654;48.898;8.308;2023-05-19T07:49:33;100766.41;;;18.50;65.29
15634;BME280;14654;48.898;8.308;2023-05-19T07:51:58;100766.19;;;18.56;64.60
15634;BME280;14654;48.898;8.308;2023-05-19T07:54:24;100766.72;;;18.66;64.60
15634;BME280;14654;48.898;8.308;2023-05-19T07:56:49;100764.81;;;18.46;64.82
15634;BME280;14654;48.898;8.308;2023-05-19T07:59:15;100765.59;;;18.48;65.61
15634;BME280;14654;48.898;8.308;2023-05-19T08:01:40;100762.00;;;18.25;65.75
15634;BME280;14654;48.898;8.308;2023-05-19T08:04:06;100764.38;;;18.06;66.62
15634;BME280;14654;48.898;8.308;2023-05-19T08:06:31;100760.28;;;18.24;66.35
15634;BME280;14654;48.898;8.308;2023-05-19T08:08:57;100761.31;;;18.20;66.32
15634;BME280;14654;48.898;8.308;2023-05-19T08:11:22;100754.84;;;18.04;66.57
15634;BME280;14654;48.898;8.308;2023-05-19T08:13:47;100750.66;;;18.25;66.54
15634;BME280;14654;48.898;8.308;2023-05-19T08:16:14;100745.59;;;17.92;66.97
15634;BME280;14654;48.898;8.308;2023-05-19T08:18:39;100746.69;;;18.13;67.29
15634;BME280;14654;48.898;8.308;2023-05-19T08:21:05;100743.13;;;17.87;67.95
15634;BME280;14654;48.898;8.308;2023-05-19T08:23:30;100745.47;;;17.68;68.36
15634;BME280;14654;48.898;8.308;2023-05-19T08:25:56;100755.53;;;17.54;68.34
15634;BME280;14654;48.898;8.308;2023-05-19T08:28:21;100736.34;;;17.53;69.24
15634;BME280;14654;48.898;8.308;2023-05-19T08:30:46;100735.38;;;17.84;68.90
15634;BME280;14654;48.898;8.308;2023-05-19T08:33:12;100727.84;;;18.02;68.52
15634;BME280;14654;48.898;8.308;2023-05-19T08:35:37;100721.13;;;17.93;68.53
15634;BME280;14654;48.898;8.308;2023-05-19T08:38:02;100716.69;;;17.68;69.46
15634;BME280;14654;48.898;8.308;2023-05-19T08:40:28;100723.69;;;17.39;70.20
15634;BME280;14654;48.898;8.308;2023-05-19T08:42:55;100726.31;;;17.39;69.92
15634;BME280;14654;48.898;8.308;2023-05-19T08:45:21;100720.19;;;17.39;70.42
15634;BME280;14654;48.898;8.308;2023-05-19T08:47:47;100723.06;;;17.31;71.10
15634;BME280;14654;48.898;8.308;2023-05-19T08:50:16;100731.94;;;17.25;70.51
15634;BME280;14654;48.898;8.308;2023-05-19T08:52:51;100728.13;;;17.07;71.60
15634;BME280;14654;48.898;8.308;2023-05-19T08:55:31;100719.31;;;17.10;70.55
15634;BME280;14654;48.898;8.308;2023-05-19T08:58:00;100729.72;;;17.11;70.28
15634;BME280;14654;48.898;8.308;2023-05-19T09:00:26;100720.59;;;16.95;70.27
15634;BME280;14654;48.898;8.308;2023-05-19T09:02:52;100726.81;;;16.90;71.36
15634;BME280;14654;48.898;8.308;2023-05-19T09:05:18;100719.53;;;17.02;71.46
15634;BME280;14654;48.898;8.308;2023-05-19T09:07:44;100706.31;;;17.08;71.11
15634;BME280;14654;48.898;8.308;2023-05-19T09:10:10;100703.72;;;17.06;70.72
15634;BME280;14654;48.898;8.308;2023-05-19T09:12:42;100707.88;;;17.14;70.42
15634;BME280;14654;48.898;8.308;2023-05-19T09:15:09;100708.50;;;17.22;70.26
15634;BME280;14654;48.898;8.308;2023-05-19T09:17:35;100708.19;;;17.03;70.01
15634;BME280;14654;48.898;8.308;2023-05-19T09:20:01;100705.63;;;17.01;70.55
15634;BME280;14654;48.898;8.308;2023-05-19T09:22:29;100707.97;;;17.11;70.38
15634;BME280;14654;48.898;8.308;2023-05-19T09:24:55;100701.25;;;17.02;70.42
15634;BME280;14654;48.898;8.308;2023-05-19T09:27:21;100704.47;;;17.10;70.69
15634;BME280;14654;48.898;8.308;2023-05-19T09:29:48;100699.75;;;17.23;69.57
15634;BME280;14654;48.898;8.308;2023-05-19T09:32:23;100705.56;;;17.61;69.25
15634;BME280;14654;48.898;8.308;2023-05-19T09:34:48;100696.75;;;17.64;68.27
15634;BME280;14654;48.898;8.308;2023-05-19T09:37:15;100694.53;;;17.51;68.31
15634;BME280;14654;48.898;8.308;2023-05-19T09:39:40;100709.13;;;17.59;68.71
15634;BME280;14654;48.898;8.308;2023-05-19T09:42:06;100700.81;;;17.46;68.28
15634;BME280;14654;48.898;8.308;2023-05-19T09:44:33;100696.00;;;17.32;67.78
15634;BME280;14654;48.898;8.308;2023-05-19T09:46:59;100686.94;;;17.42;68.09
15634;BME280;14654;48.898;8.308;2023-05-19T09:49:26;100690.13;;;17.52;67.04
15634;BME280;14654;48.898;8.308;2023-05-19T09:52:06;100682.44;;;18.03;66.73
15634;BME280;14654;48.898;8.308;2023-05-19T09:54:32;100678.41;;;17.91;68.09
15634;BME280;14654;48.898;8.308;2023-05-19T09:56:59;100691.03;;;17.79;67.99
15634;BME280;14654;48.898;8.308;2023-05-19T09:59:27;100679.75;;;17.77;67.40
15634;BME280;14654;48.898;8.308;2023-05-19T10:01:54;100669.44;;;18.00;67.33
15634;BME280;14654;48.898;8.308;2023-05-19T10:04:22;100692.81;;;18.06;67.62
15634;BME280;14654;48.898;8.308;2023-05-19T10:06:49;100677.13;;;18.04;68.05
15634;BME280;14654;48.898;8.308;2023-05-19T10:09:22;100677.75;;;18.12;66.80
15634;BME280;14654;48.898;8.308;2023-05-19T10:11:51;100675.53;;;18.25;66.54
15634;BME280;14654;48.898;8.308;2023-05-19T10:14:22;100676.53;;;18.47;67.21
15634;BME280;14654;48.898;8.308;2023-05-19T10:16:56;100669.34;;;18.03;65.61
15634;BME280;14654;48.898;8.308;2023-05-19T10:19:22;100661.31;;;18.07;65.72
15634;BME280;14654;48.898;8.308;2023-05-19T10:21:49;100671.16;;;18.26;66.56
15634;BME280;14654;48.898;8.308;2023-05-19T10:24:14;100669.91;;;18.62;66.67
15634;BME280;14654;48.898;8.308;2023-05-19T10:26:44;100670.69;;;18.87;64.99
15634;BME280;14654;48.898;8.308;2023-05-19T10:29:14;100661.31;;;19.06;64.29
15634;BME280;14654;48.898;8.308;2023-05-19T10:31:42;100661.75;;;19.17;64.00
15634;BME280;14654;48.898;8.308;2023-05-19T10:36:48;100668.44;;;18.78;64.85
15634;BME280;14654;48.898;8.308;2023-05-19T10:39:18;100655.03;;;19.10;64.10
15634;BME280;14654;48.898;8.308;2023-05-19T10:47:07;100667.34;;;19.30;64.72
15634;BME280;14654;48.898;8.308;2023-05-19T10:49:35;100665.78;;;19.26;64.49
15634;BME280;14654;48.898;8.308;2023-05-19T10:52:01;100658.94;;;19.22;63.99
15634;BME280;14654;48.898;8.308;2023-05-19T10:57:05;100664.19;;;18.74;63.67
15634;BME280;14654;48.898;8.308;2023-05-19T10:59:34;100653.72;;;18.74;64.79
15634;BME280;14654;48.898;8.308;2023-05-19T11:02:05;100662.00;;;18.38;65.93
15634;BME280;14654;48.898;8.308;2023-05-19T11:04:49;100659.72;;;18.28;66.12
15634;BME280;14654;48.898;8.308;2023-05-19T11:07:19;100654.34;;;18.57;65.26
15634;BME280;14654;48.898;8.308;2023-05-19T11:09:52;100681.47;;;18.56;65.11
15634;BME280;14654;48.898;8.308;2023-05-19T11:12:21;100661.41;;;18.55;65.10
15634;BME280;14654;48.898;8.308;2023-05-19T11:14:47;100671.06;;;18.29;65.58
15634;BME280;14654;48.898;8.308;2023-05-19T11:17:14;100659.50;;;18.35;65.46
15634;BME280;14654;48.898;8.308;2023-05-19T11:19:51;100657.56;;;18.40;64.81
15634;BME280;14654;48.898;8.308;2023-05-19T11:22:16;100663.13;;;18.31;65.81
15634;BME280;14654;48.898;8.308;2023-05-19T11:24:45;100659.16;;;18.20;66.89
15634;BME280;14654;48.898;8.308;2023-05-19T11:29:50;100660.44;;;18.32;65.85
15634;BME280;14654;48.898;8.308;2023-05-19T11:32:16;100652.38;;;18.38;65.58
15634;BME280;14654;48.898;8.308;2023-05-19T11:34:43;100652.34;;;18.64;65.49
15634;BME280;14654;48.898;8.308;2023-05-19T11:37:10;100651.25;;;18.95;65.64
15634;BME280;14654;48.898;8.308;2023-05-19T11:39:35;100651.56;;;19.31;64.99
15634;BME280;14654;48.898;8.308;2023-05-19T11:42:01;100657.63;;;19.33;64.09
15634;BME280;14654;48.898;8.308;2023-05-19T11:44:26;100654.28;;;19.73;64.32
15634;BME280;14654;48.898;8.308;2023-05-19T11:46:52;100659.28;;;19.79;63.89
15634;BME280;14654;48.898;8.308;2023-05-19T11:49:17;100660.75;;;19.43;63.13
15634;BME280;14654;48.898;8.308;2023-05-19T11:51:43;100652.97;;;19.40;63.16
15634;BME280;14654;48.898;8.308;2023-05-19T11:54:09;100647.66;;;19.42;63.97
15634;BME280;14654;48.898;8.308;2023-05-19T11:56:39;100650.06;;;19.69;63.98
15634;BME280;14654;48.898;8.308;2023-05-19T11:59:05;100654.03;;;19.79;64.34
15634;BME280;14654;48.898;8.308;2023-05-19T12:01:30;100649.94;;;19.72;64.57
15634;BME280;14654;48.898;8.308;2023-05-19T12:03:56;100656.44;;;19.63;65.18
15634;BME280;14654;48.898;8.308;2023-05-19T12:06:21;100654.63;;;19.43;64.95
15634;BME280;14654;48.898;8.308;2023-05-19T12:08:50;100667.75;;;19.43;65.30
15634;BME280;14654;48.898;8.308;2023-05-19T12:11:15;100666.97;;;18.95;64.93
15634;BME280;14654;48.898;8.308;2023-05-19T12:13:41;100662.94;;;18.61;65.18
15634;BME280;14654;48.898;8.308;2023-05-19T12:16:07;100664.13;;;18.76;65.46
15634;BME280;14654;48.898;8.308;2023-05-19T12:18:36;100664.31;;;18.71;65.88
15634;BME280;14654;48.898;8.308;2023-05-19T12:21:01;100667.72;;;18.73;66.07
15634;BME280;14654;48.898;8.308;2023-05-19T12:23:27;100674.16;;;18.64;66.14
15634;BME280;14654;48.898;8.308;2023-05-19T12:25:55;100666.66;;;18.55;66.25
15634;BME280;14654;48.898;8.308;2023-05-19T12:28:21;100668.44;;;18.29;66.66
15634;BME280;14654;48.898;8.308;2023-05-19T12:30:48;100676.88;;;18.37;66.78
15634;BME280;14654;48.898;8.308;2023-05-19T12:33:16;100678.78;;;18.32;67.01
15634;BME280;14654;48.898;8.308;2023-05-19T12:35:43;100677.59;;;18.17;68.34
15634;BME280;14654;48.898;8.308;2023-05-19T12:38:08;100670.28;;;18.00;67.61
15634;BME280;14654;48.898;8.308;2023-05-19T12:40:35;100668.00;;;17.89;67.95
15634;BME280;14654;48.898;8.308;2023-05-19T12:43:01;100677.19;;;17.76;67.85
15634;BME280;14654;48.898;8.308;2023-05-19T12:45:26;100673.28;;;17.61;68.56
15634;BME280;14654;48.898;8.308;2023-05-19T12:47:52;100668.00;;;17.62;69.30
15634;BME280;14654;48.898;8.308;2023-05-19T12:50:18;100675.66;;;17.68;68.99
15634;BME280;14654;48.898;8.308;2023-05-19T12:52:46;100676.53;;;17.69;68.67
15634;BME280;14654;48.898;8.308;2023-05-19T12:55:11;100679.81;;;17.76;68.80
15634;BME280;14654;48.898;8.308;2023-05-19T12:57:39;100678.09;;;17.75;68.45
15634;BME280;14654;48.898;8.308;2023-05-19T13:00:16;100667.81;;;17.68;68.82
15634;BME280;14654;48.898;8.308;2023-05-19T13:05:30;100673.78;;;17.72;68.33
15634;BME280;14654;48.898;8.308;2023-05-19T13:08:05;100664.66;;;18.12;68.27
15634;BME280;14654;48.898;8.308;2023-05-19T13:10:32;100657.53;;;18.41;68.28
15634;BME280;14654;48.898;8.308;2023-05-19T13:12:58;100665.88;;;18.27;68.32
15634;BME280;14654;48.898;8.308;2023-05-19T13:15:25;100661.81;;;17.92;67.43
15634;BME280;14654;48.898;8.308;2023-05-19T13:17:52;100660.34;;;18.10;68.27